sensor_id;sensor_type;location;lat;lon;timestamp;P1;durP1;ratioP1;P2;durP2;ratioP2
71753;SDS011;59593;51.716;7.016;2023-12-28T00:00:47;4.13;;;2.40;;
71753;SDS011;59593;51.716;7.016;2023-12-28T00:03:13;3.77;;;2.23;;
71753;SDS011;59593;51.716;7.016;2023-12-28T00:05:39;4.60;;;2.70;;
71753;SDS011;59593;51.716;7.016;2023-12-28T00:08:04;3.50;;;2.50;;
71753;SDS011;59593;51.716;7.016;2023-12-28T00:10:30;3.93;;;2.87;;
71753;SDS011;59593;51.716;7.016;2023-12-28T00:12:56;5.93;;;2.63;;
71753;SDS011;59593;51.716;7.016;2023-12-28T00:15:22;4.23;;;2.73;;
71753;SDS011;59593;51.716;7.016;2023-12-28T00:17:47;5.20;;;3.07;;
71753;SDS011;59593;51.716;7.016;2023-12-28T00:20:13;3.87;;;2.63;;
71753;SDS011;59593;51.716;7.016;2023-12-28T00:22:39;6.57;;;2.80;;
71753;SDS011;59593;51.716;7.016;2023-12-28T00:25:05;5.30;;;2.70;;
71753;SDS011;59593;51.716;7.016;2023-12-28T00:27:31;4.10;;;2.97;;
71753;SDS011;59593;51.716;7.016;2023-12-28T00:29:59;4.83;;;2.77;;
71753;SDS011;59593;51.716;7.016;2023-12-28T00:32:25;6.07;;;2.60;;
71753;SDS011;59593;51.716;7.016;2023-12-28T00:34:50;3.73;;;2.87;;
71753;SDS011;59593;51.716;7.016;2023-12-28T00:37:16;4.60;;;2.57;;
71753;SDS011;59593;51.716;7.016;2023-12-28T00:39:42;5.83;;;2.77;;
71753;SDS011;59593;51.716;7.016;2023-12-28T00:42:07;4.03;;;3.00;;
71753;SDS011;59593;51.716;7.016;2023-12-28T00:44:33;6.30;;;2.50;;
71753;SDS011;59593;51.716;7.016;2023-12-28T00:46:59;4.73;;;2.90;;
71753;SDS011;59593;51.716;7.016;2023-12-28T00:49:24;4.50;;;2.67;;
71753;SDS011;59593;51.716;7.016;2023-12-28T00:51:50;4.53;;;2.60;;
71753;SDS011;59593;51.716;7.016;2023-12-28T00:54:15;5.60;;;2.80;;
71753;SDS011;59593;51.716;7.016;2023-12-28T00:56:41;4.17;;;2.67;;
71753;SDS011;59593;51.716;7.016;2023-12-28T00:59:06;5.33;;;2.80;;
71753;SDS011;59593;51.716;7.016;2023-12-28T01:01:32;6.63;;;3.30;;
71753;SDS011;59593;51.716;7.016;2023-12-28T01:03:58;4.83;;;2.93;;
71753;SDS011;59593;51.716;7.016;2023-12-28T01:06:24;6.73;;;3.20;;
71753;SDS011;59593;51.716;7.016;2023-12-28T01:08:53;6.03;;;3.07;;
71753;SDS011;59593;51.716;7.016;2023-12-28T01:11:21;5.73;;;2.83;;
71753;SDS011;59593;51.716;7.016;2023-12-28T01:13:47;6.50;;;3.07;;
71753;SDS011;59593;51.716;7.016;2023-12-28T01:16:13;5.37;;;3.00;;
71753;SDS011;59593;51.716;7.016;2023-12-28T01:18:39;5.63;;;3.40;;
71753;SDS011;59593;51.716;7.016;2023-12-28T01:21:05;6.13;;;3.30;;
71753;SDS011;59593;51.716;7.016;2023-12-28T01:23:31;6.30;;;3.47;;
71753;SDS011;59593;51.716;7.016;2023-12-28T01:25:56;5.47;;;3.23;;
71753;SDS011;59593;51.716;7.016;2023-12-28T01:28:22;5.30;;;3.33;;
71753;SDS011;59593;51.716;7.016;2023-12-28T01:30:49;6.23;;;3.57;;
71753;SDS011;59593;51.716;7.016;2023-12-28T01:33:14;4.10;;;2.77;;
71753;SDS011;59593;51.716;7.016;2023-12-28T01:35:40;6.53;;;2.83;;
71753;SDS011;59593;51.716;7.016;2023-12-28T01:38:06;3.80;;;2.90;;
71753;SDS011;59593;51.716;7.016;2023-12-28T01:40:32;5.20;;;2.40;;
71753;SDS011;59593;51.716;7.016;2023-12-28T01:42:57;5.33;;;2.77;;
71753;SDS011;59593;51.716;7.016;2023-12-28T01:45:23;4.70;;;2.50;;
71753;SDS011;59593;51.716;7.016;2023-12-28T01:47:50;4.83;;;2.67;;
71753;SDS011;59593;51.716;7.016;2023-12-28T01:50:17;4.30;;;2.63;;
71753;SDS011;59593;51.716;7.016;2023-12-28T01:52:43;4.83;;;2.57;;
71753;SDS011;59593;51.716;7.016;2023-12-28T01:55:10;4.20;;;2.50;;
71753;SDS011;59593;51.716;7.016;2023-12-28T01:57:36;3.90;;;2.60;;
71753;SDS011;59593;51.716;7.016;2023-12-28T02:00:02;4.37;;;2.70;;
71753;SDS011;59593;51.716;7.016;2023-12-28T02:02:29;5.10;;;2.30;;
71753;SDS011;59593;51.716;7.016;2023-12-28T02:04:56;4.73;;;2.60;;
71753;SDS011;59593;51.716;7.016;2023-12-28T02:07:22;4.50;;;2.70;;
71753;SDS011;59593;51.716;7.016;2023-12-28T02:09:49;4.60;;;2.73;;
71753;SDS011;59593;51.716;7.016;2023-12-28T02:12:14;4.70;;;2.70;;
71753;SDS011;59593;51.716;7.016;2023-12-28T02:14:40;4.47;;;2.33;;
71753;SDS011;59593;51.716;7.016;2023-12-28T02:17:06;4.87;;;2.57;;
71753;SDS011;59593;51.716;7.016;2023-12-28T02:19:45;4.70;;;2.63;;
71753;SDS011;59593;51.716;7.016;2023-12-28T02:22:15;5.23;;;2.90;;
71753;SDS011;59593;51.716;7.016;2023-12-28T02:27:40;4.77;;;2.83;;
71753;SDS011;59593;51.716;7.016;2023-12-28T02:30:13;5.33;;;2.97;;
71753;SDS011;59593;51.716;7.016;2023-12-28T02:35:27;4.50;;;2.60;;
71753;SDS011;59593;51.716;7.016;2023-12-28T02:37:58;3.80;;;3.10;;
71753;SDS011;59593;51.716;7.016;2023-12-28T02:40:27;4.77;;;3.13;;
71753;SDS011;59593;51.716;7.016;2023-12-28T02:42:54;3.23;;;2.93;;
71753;SDS011;59593;51.716;7.016;2023-12-28T02:45:19;4.20;;;3.07;;
71753;SDS011;59593;51.716;7.016;2023-12-28T02:47:45;3.43;;;2.63;;
71753;SDS011;59593;51.716;7.016;2023-12-28T02:50:11;4.23;;;2.90;;
71753;SDS011;59593;51.716;7.016;2023-12-28T02:52:36;4.30;;;3.10;;
71753;SDS011;59593;51.716;7.016;2023-12-28T02:55:02;5.43;;;2.77;;
71753;SDS011;59593;51.716;7.016;2023-12-28T02:57:28;4.73;;;3.23;;
71753;SDS011;59593;51.716;7.016;2023-12-28T02:59:54;3.93;;;2.73;;
71753;SDS011;59593;51.716;7.016;2023-12-28T03:02:21;4.30;;;2.70;;
71753;SDS011;59593;51.716;7.016;2023-12-28T03:04:47;3.50;;;2.57;;
71753;SDS011;59593;51.716;7.016;2023-12-28T03:07:13;6.77;;;2.60;;
71753;SDS011;59593;51.716;7.016;2023-12-28T03:09:38;4.50;;;2.80;;
71753;SDS011;59593;51.716;7.016;2023-12-28T03:12:04;4.70;;;3.23;;
71753;SDS011;59593;51.716;7.016;2023-12-28T03:14:31;4.43;;;2.90;;
71753;SDS011;59593;51.716;7.016;2023-12-28T03:16:57;3.77;;;2.60;;
71753;SDS011;59593;51.716;7.016;2023-12-28T03:19:22;6.00;;;3.07;;
71753;SDS011;59593;51.716;7.016;2023-12-28T03:21:48;4.43;;;2.33;;
71753;SDS011;59593;51.716;7.016;2023-12-28T03:24:14;5.07;;;2.70;;
71753;SDS011;59593;51.716;7.016;2023-12-28T03:26:39;5.93;;;2.97;;
71753;SDS011;59593;51.716;7.016;2023-12-28T03:29:05;5.23;;;2.93;;
71753;SDS011;59593;51.716;7.016;2023-12-28T03:31:31;6.30;;;3.07;;
71753;SDS011;59593;51.716;7.016;2023-12-28T03:33:56;7.33;;;2.97;;
71753;SDS011;59593;51.716;7.016;2023-12-28T03:36:22;7.90;;;3.10;;
71753;SDS011;59593;51.716;7.016;2023-12-28T03:38:48;7.73;;;3.13;;
71753;SDS011;59593;51.716;7.016;2023-12-28T03:41:20;4.80;;;2.90;;
71753;SDS011;59593;51.716;7.016;2023-12-28T03:43:46;5.93;;;3.10;;
71753;SDS011;59593;51.716;7.016;2023-12-28T03:46:12;5.47;;;3.03;;
71753;SDS011;59593;51.716;7.016;2023-12-28T03:48:38;6.03;;;2.70;;
71753;SDS011;59593;51.716;7.016;2023-12-28T03:51:04;6.10;;;2.80;;
71753;SDS011;59593;51.716;7.016;2023-12-28T03:53:30;7.10;;;2.80;;
71753;SDS011;59593;51.716;7.016;2023-12-28T03:55:59;5.30;;;2.80;;
71753;SDS011;59593;51.716;7.016;2023-12-28T03:58:26;4.63;;;2.70;;
71753;SDS011;59593;51.716;7.016;2023-12-28T04:00:52;4.83;;;2.87;;
71753;SDS011;59593;51.716;7.016;2023-12-28T04:03:17;4.87;;;2.67;;
71753;SDS011;59593;51.716;7.016;2023-12-28T04:05:43;6.37;;;2.73;;
71753;SDS011;59593;51.716;7.016;2023-12-28T04:08:09;7.90;;;2.90;;
71753;SDS011;59593;51.716;7.016;2023-12-28T04:10:35;4.37;;;2.43;;
71753;SDS011;59593;51.716;7.016;2023-12-28T04:13:02;4.13;;;2.70;;
71753;SDS011;59593;51.716;7.016;2023-12-28T04:15:28;6.17;;;2.60;;
71753;SDS011;59593;51.716;7.016;2023-12-28T04:17:55;4.43;;;2.80;;
71753;SDS011;59593;51.716;7.016;2023-12-28T04:20:22;5.77;;;2.60;;
71753;SDS011;59593;51.716;7.016;2023-12-28T04:22:48;4.80;;;2.70;;
71753;SDS011;59593;51.716;7.016;2023-12-28T04:25:14;5.47;;;2.63;;
71753;SDS011;59593;51.716;7.016;2023-12-28T04:27:41;4.53;;;2.80;;
71753;SDS011;59593;51.716;7.016;2023-12-28T04:30:07;4.77;;;2.80;;
71753;SDS011;59593;51.716;7.016;2023-12-28T04:32:36;4.87;;;3.07;;
71753;SDS011;59593;51.716;7.016;2023-12-28T04:35:02;4.17;;;2.57;;
71753;SDS011;59593;51.716;7.016;2023-12-28T04:37:28;5.37;;;2.87;;
71753;SDS011;59593;51.716;7.016;2023-12-28T04:39:55;6.27;;;2.70;;
71753;SDS011;59593;51.716;7.016;2023-12-28T04:42:21;5.00;;;2.80;;
71753;SDS011;59593;51.716;7.016;2023-12-28T04:44:47;4.27;;;2.37;;
71753;SDS011;59593;51.716;7.016;2023-12-28T04:47:13;5.10;;;2.73;;
71753;SDS011;59593;51.716;7.016;2023-12-28T04:49:38;6.77;;;3.20;;
71753;SDS011;59593;51.716;7.016;2023-12-28T04:52:06;3.83;;;2.70;;
71753;SDS011;59593;51.716;7.016;2023-12-28T04:54:32;6.70;;;2.93;;
71753;SDS011;59593;51.716;7.016;2023-12-28T04:57:00;6.47;;;3.10;;
71753;SDS011;59593;51.716;7.016;2023-12-28T04:59:26;5.03;;;2.77;;
71753;SDS011;59593;51.716;7.016;2023-12-28T05:01:51;6.00;;;3.27;;
71753;SDS011;59593;51.716;7.016;2023-12-28T05:04:17;4.80;;;2.80;;
71753;SDS011;59593;51.716;7.016;2023-12-28T05:06:42;5.37;;;2.60;;
71753;SDS011;59593;51.716;7.016;2023-12-28T05:09:08;4.80;;;2.60;;
71753;SDS011;59593;51.716;7.016;2023-12-28T05:11:34;5.10;;;2.70;;
71753;SDS011;59593;51.716;7.016;2023-12-28T05:13:59;4.77;;;2.63;;
71753;SDS011;59593;51.716;7.016;2023-12-28T05:16:25;4.73;;;2.50;;
71753;SDS011;59593;51.716;7.016;2023-12-28T05:18:50;5.80;;;2.50;;
71753;SDS011;59593;51.716;7.016;2023-12-28T05:21:16;4.70;;;2.60;;
71753;SDS011;59593;51.716;7.016;2023-12-28T05:23:42;8.20;;;2.63;;
71753;SDS011;59593;51.716;7.016;2023-12-28T05:26:07;5.37;;;2.57;;
71753;SDS011;59593;51.716;7.016;2023-12-28T05:28:33;7.30;;;2.80;;
71753;SDS011;59593;51.716;7.016;2023-12-28T05:30:58;5.47;;;2.60;;
71753;SDS011;59593;51.716;7.016;2023-12-28T05:33:27;5.77;;;2.73;;
71753;SDS011;59593;51.716;7.016;2023-12-28T05:35:53;5.03;;;2.50;;
71753;SDS011;59593;51.716;7.016;2023-12-28T05:38:18;5.77;;;2.50;;
71753;SDS011;59593;51.716;7.016;2023-12-28T05:40:44;4.83;;;2.60;;
71753;SDS011;59593;51.716;7.016;2023-12-28T05:43:10;5.20;;;2.47;;
71753;SDS011;59593;51.716;7.016;2023-12-28T05:45:36;6.20;;;2.67;;
71753;SDS011;59593;51.716;7.016;2023-12-28T05:48:02;4.97;;;2.83;;
71753;SDS011;59593;51.716;7.016;2023-12-28T05:50:28;5.73;;;2.70;;
71753;SDS011;59593;51.716;7.016;2023-12-28T05:52:54;6.47;;;2.30;;
71753;SDS011;59593;51.716;7.016;2023-12-28T05:55:20;5.80;;;2.70;;
71753;SDS011;59593;51.716;7.016;2023-12-28T05:57:45;8.57;;;2.87;;
71753;SDS011;59593;51.716;7.016;2023-12-28T06:00:12;7.37;;;2.80;;
71753;SDS011;59593;51.716;7.016;2023-12-28T06:02:38;5.27;;;2.43;;
71753;SDS011;59593;51.716;7.016;2023-12-28T06:05:04;6.40;;;2.50;;
71753;SDS011;59593;51.716;7.016;2023-12-28T06:07:30;4.57;;;2.30;;
71753;SDS011;59593;51.716;7.016;2023-12-28T06:09:55;3.00;;;2.03;;
71753;SDS011;59593;51.716;7.016;2023-12-28T06:12:21;7.80;;;2.63;;
71753;SDS011;59593;51.716;7.016;2023-12-28T06:14:46;5.40;;;2.20;;
71753;SDS011;59593;51.716;7.016;2023-12-28T06:17:12;5.83;;;2.10;;
71753;SDS011;59593;51.716;7.016;2023-12-28T06:19:40;7.77;;;2.53;;
71753;SDS011;59593;51.716;7.016;2023-12-28T06:22:05;5.70;;;2.00;;
71753;SDS011;59593;51.716;7.016;2023-12-28T06:24:31;5.63;;;2.67;;
71753;SDS011;59593;51.716;7.016;2023-12-28T06:26:56;4.97;;;2.03;;
71753;SDS011;59593;51.716;7.016;2023-12-28T06:29:22;6.37;;;2.30;;
71753;SDS011;59593;51.716;7.016;2023-12-28T06:31:47;5.90;;;2.20;;
71753;SDS011;59593;51.716;7.016;2023-12-28T06:34:13;5.88;;;2.40;;
71753;SDS011;59593;51.716;7.016;2023-12-28T06:36:39;6.17;;;2.70;;
71753;SDS011;59593;51.716;7.016;2023-12-28T06:39:04;7.33;;;2.90;;
71753;SDS011;59593;51.716;7.016;2023-12-28T06:41:30;5.80;;;2.40;;
71753;SDS011;59593;51.716;7.016;2023-12-28T06:43:55;7.00;;;2.70;;
71753;SDS011;59593;51.716;7.016;2023-12-28T06:46:21;6.30;;;2.20;;
71753;SDS011;59593;51.716;7.016;2023-12-28T06:48:47;6.00;;;2.30;;
71753;SDS011;59593;51.716;7.016;2023-12-28T06:51:16;6.43;;;2.40;;
71753;SDS011;59593;51.716;7.016;2023-12-28T06:53:45;5.53;;;2.20;;
71753;SDS011;59593;51.716;7.016;2023-12-28T06:56:11;4.63;;;2.43;;
71753;SDS011;59593;51.716;7.016;2023-12-28T06:58:37;7.00;;;2.53;;
71753;SDS011;59593;51.716;7.016;2023-12-28T07:01:03;6.33;;;2.37;;
71753;SDS011;59593;51.716;7.016;2023-12-28T07:03:29;8.97;;;2.57;;
71753;SDS011;59593;51.716;7.016;2023-12-28T07:05:57;10.17;;;2.30;;
71753;SDS011;59593;51.716;7.016;2023-12-28T07:08:23;8.60;;;2.30;;
71753;SDS011;59593;51.716;7.016;2023-12-28T07:10:49;9.23;;;2.57;;
71753;SDS011;59593;51.716;7.016;2023-12-28T07:13:14;9.03;;;2.50;;
71753;SDS011;59593;51.716;7.016;2023-12-28T07:15:40;5.40;;;2.50;;
71753;SDS011;59593;51.716;7.016;2023-12-28T07:18:06;8.07;;;2.63;;
71753;SDS011;59593;51.716;7.016;2023-12-28T07:20:31;7.33;;;2.37;;
71753;SDS011;59593;51.716;7.016;2023-12-28T07:22:57;7.80;;;2.43;;
71753;SDS011;59593;51.716;7.016;2023-12-28T07:25:22;9.70;;;2.40;;
71753;SDS011;59593;51.716;7.016;2023-12-28T07:27:48;7.07;;;2.50;;
71753;SDS011;59593;51.716;7.016;2023-12-28T07:30:14;6.72;;;2.40;;
71753;SDS011;59593;51.716;7.016;2023-12-28T07:32:41;8.48;;;2.45;;
71753;SDS011;59593;51.716;7.016;2023-12-28T07:35:07;7.80;;;2.80;;
71753;SDS011;59593;51.716;7.016;2023-12-28T07:37:33;7.27;;;2.20;;
71753;SDS011;59593;51.716;7.016;2023-12-28T07:39:59;9.33;;;2.60;;
71753;SDS011;59593;51.716;7.016;2023-12-28T07:42:25;7.67;;;2.60;;
71753;SDS011;59593;51.716;7.016;2023-12-28T07:44:51;9.07;;;2.47;;
71753;SDS011;59593;51.716;7.016;2023-12-28T07:47:16;9.63;;;2.27;;
71753;SDS011;59593;51.716;7.016;2023-12-28T07:49:42;8.60;;;2.30;;
71753;SDS011;59593;51.716;7.016;2023-12-28T07:52:07;8.13;;;3.23;;
71753;SDS011;59593;51.716;7.016;2023-12-28T07:54:33;8.63;;;2.37;;
71753;SDS011;59593;51.716;7.016;2023-12-28T07:56:59;5.43;;;2.20;;
71753;SDS011;59593;51.716;7.016;2023-12-28T07:59:25;7.10;;;2.50;;
71753;SDS011;59593;51.716;7.016;2023-12-28T08:01:50;13.03;;;2.53;;
71753;SDS011;59593;51.716;7.016;2023-12-28T08:04:16;9.57;;;2.50;;
71753;SDS011;59593;51.716;7.016;2023-12-28T08:06:42;9.03;;;2.80;;
71753;SDS011;59593;51.716;7.016;2023-12-28T08:09:07;8.37;;;2.40;;
71753;SDS011;59593;51.716;7.016;2023-12-28T08:11:33;10.80;;;3.10;;
71753;SDS011;59593;51.716;7.016;2023-12-28T08:13:59;11.10;;;3.17;;
71753;SDS011;59593;51.716;7.016;2023-12-28T08:16:25;8.67;;;2.40;;
71753;SDS011;59593;51.716;7.016;2023-12-28T08:18:51;11.30;;;2.60;;
71753;SDS011;59593;51.716;7.016;2023-12-28T08:21:17;11.10;;;2.20;;
71753;SDS011;59593;51.716;7.016;2023-12-28T08:23:43;12.10;;;2.77;;
71753;SDS011;59593;51.716;7.016;2023-12-28T08:26:09;9.37;;;2.40;;
71753;SDS011;59593;51.716;7.016;2023-12-28T08:28:35;10.90;;;2.80;;
71753;SDS011;59593;51.716;7.016;2023-12-28T08:31:01;8.03;;;2.10;;
71753;SDS011;59593;51.716;7.016;2023-12-28T08:33:27;6.60;;;2.40;;
71753;SDS011;59593;51.716;7.016;2023-12-28T08:35:52;10.20;;;2.50;;
71753;SDS011;59593;51.716;7.016;2023-12-28T08:38:19;11.07;;;2.73;;
71753;SDS011;59593;51.716;7.016;2023-12-28T08:40:44;9.83;;;2.60;;
71753;SDS011;59593;51.716;7.016;2023-12-28T08:43:10;7.83;;;2.37;;
71753;SDS011;59593;51.716;7.016;2023-12-28T08:45:36;13.17;;;3.10;;
71753;SDS011;59593;51.716;7.016;2023-12-28T08:48:02;11.63;;;3.15;;
71753;SDS011;59593;51.716;7.016;2023-12-28T08:50:28;7.23;;;2.33;;
71753;SDS011;59593;51.716;7.016;2023-12-28T08:52:54;10.00;;;2.70;;
71753;SDS011;59593;51.716;7.016;2023-12-28T08:55:20;15.93;;;2.83;;
71753;SDS011;59593;51.716;7.016;2023-12-28T08:57:46;12.60;;;2.70;;
71753;SDS011;59593;51.716;7.016;2023-12-28T09:00:13;10.23;;;3.23;;
71753;SDS011;59593;51.716;7.016;2023-12-28T09:02:42;10.00;;;2.97;;
71753;SDS011;59593;51.716;7.016;2023-12-28T09:05:08;10.83;;;3.07;;
71753;SDS011;59593;51.716;7.016;2023-12-28T09:07:34;11.47;;;2.80;;
71753;SDS011;59593;51.716;7.016;2023-12-28T09:10:04;15.57;;;3.43;;
71753;SDS011;59593;51.716;7.016;2023-12-28T09:12:30;12.40;;;3.10;;
71753;SDS011;59593;51.716;7.016;2023-12-28T09:14:55;11.80;;;3.43;;
71753;SDS011;59593;51.716;7.016;2023-12-28T09:17:21;9.57;;;2.80;;
71753;SDS011;59593;51.716;7.016;2023-12-28T09:19:47;12.13;;;2.50;;
71753;SDS011;59593;51.716;7.016;2023-12-28T09:22:13;13.57;;;3.30;;
71753;SDS011;59593;51.716;7.016;2023-12-28T09:24:38;12.25;;;2.70;;
71753;SDS011;59593;51.716;7.016;2023-12-28T09:27:04;11.10;;;2.70;;
71753;SDS011;59593;51.716;7.016;2023-12-28T09:29:30;10.90;;;2.60;;
71753;SDS011;59593;51.716;7.016;2023-12-28T09:31:56;12.40;;;3.00;;
71753;SDS011;59593;51.716;7.016;2023-12-28T09:34:21;11.05;;;2.60;;
71753;SDS011;59593;51.716;7.016;2023-12-28T09:36:47;11.70;;;2.90;;
71753;SDS011;59593;51.716;7.016;2023-12-28T09:39:12;13.70;;;3.10;;
71753;SDS011;59593;51.716;7.016;2023-12-28T09:41:39;13.00;;;3.17;;
71753;SDS011;59593;51.716;7.016;2023-12-28T09:44:13;10.43;;;2.43;;
71753;SDS011;59593;51.716;7.016;2023-12-28T09:46:42;12.40;;;2.90;;
71753;SDS011;59593;51.716;7.016;2023-12-28T09:49:10;14.10;;;2.75;;
71753;SDS011;59593;51.716;7.016;2023-12-28T09:51:36;17.33;;;3.17;;
71753;SDS011;59593;51.716;7.016;2023-12-28T09:54:03;14.17;;;3.00;;
71753;SDS011;59593;51.716;7.016;2023-12-28T09:56:29;13.73;;;2.93;;
71753;SDS011;59593;51.716;7.016;2023-12-28T09:58:55;14.93;;;2.97;;
71753;SDS011;59593;51.716;7.016;2023-12-28T10:01:22;10.57;;;3.10;;
71753;SDS011;59593;51.716;7.016;2023-12-28T10:03:48;9.27;;;2.60;;
71753;SDS011;59593;51.716;7.016;2023-12-28T10:06:13;10.90;;;2.80;;
71753;SDS011;59593;51.716;7.016;2023-12-28T10:08:47;11.07;;;2.75;;
71753;SDS011;59593;51.716;7.016;2023-12-28T10:11:17;14.63;;;2.80;;
71753;SDS011;59593;51.716;7.016;2023-12-28T10:13:43;22.40;;;2.88;;
71753;SDS011;59593;51.716;7.016;2023-12-28T10:16:10;12.90;;;3.00;;
71753;SDS011;59593;51.716;7.016;2023-12-28T10:18:40;11.40;;;2.73;;
71753;SDS011;59593;51.716;7.016;2023-12-28T10:21:09;15.87;;;2.87;;
71753;SDS011;59593;51.716;7.016;2023-12-28T10:23:36;13.98;;;3.10;;
71753;SDS011;59593;51.716;7.016;2023-12-28T10:26:03;14.43;;;3.27;;
71753;SDS011;59593;51.716;7.016;2023-12-28T10:28:32;14.03;;;3.47;;
71753;SDS011;59593;51.716;7.016;2023-12-28T10:31:00;12.87;;;2.80;;
71753;SDS011;59593;51.716;7.016;2023-12-28T10:33:26;13.50;;;3.20;;
71753;SDS011;59593;51.716;7.016;2023-12-28T10:35:52;12.43;;;2.97;;
71753;SDS011;59593;51.716;7.016;2023-12-28T10:38:21;15.17;;;3.00;;
71753;SDS011;59593;51.716;7.016;2023-12-28T10:40:47;12.60;;;2.50;;
71753;SDS011;59593;51.716;7.016;2023-12-28T10:43:15;10.53;;;2.87;;
71753;SDS011;59593;51.716;7.016;2023-12-28T10:45:42;10.23;;;2.33;;
71753;SDS011;59593;51.716;7.016;2023-12-28T10:48:11;11.80;;;2.58;;
71753;SDS011;59593;51.716;7.016;2023-12-28T10:50:38;16.93;;;3.07;;
71753;SDS011;59593;51.716;7.016;2023-12-28T10:53:11;10.65;;;2.72;;
71753;SDS011;59593;51.716;7.016;2023-12-28T11:01:37;13.40;;;2.77;;
71753;SDS011;59593;51.716;7.016;2023-12-28T11:06:45;16.90;;;2.40;;
71753;SDS011;59593;51.716;7.016;2023-12-28T11:09:13;13.57;;;2.85;;
71753;SDS011;59593;51.716;7.016;2023-12-28T11:11:40;13.67;;;2.80;;
71753;SDS011;59593;51.716;7.016;2023-12-28T11:14:08;12.45;;;2.60;;
71753;SDS011;59593;51.716;7.016;2023-12-28T11:16:34;14.45;;;2.97;;
71753;SDS011;59593;51.716;7.016;2023-12-28T11:19:02;12.77;;;2.47;;
71753;SDS011;59593;51.716;7.016;2023-12-28T11:21:29;9.30;;;2.83;;
71753;SDS011;59593;51.716;7.016;2023-12-28T11:23:55;9.88;;;2.55;;
71753;SDS011;59593;51.716;7.016;2023-12-28T11:26:22;8.30;;;2.10;;
71753;SDS011;59593;51.716;7.016;2023-12-28T11:28:48;12.07;;;2.50;;
71753;SDS011;59593;51.716;7.016;2023-12-28T11:31:14;11.32;;;2.75;;
71753;SDS011;59593;51.716;7.016;2023-12-28T11:33:47;11.27;;;2.75;;
71753;SDS011;59593;51.716;7.016;2023-12-28T11:36:24;15.98;;;2.60;;
71753;SDS011;59593;51.716;7.016;2023-12-28T11:38:59;10.15;;;2.53;;
71753;SDS011;59593;51.716;7.016;2023-12-28T11:41:27;9.85;;;2.60;;
71753;SDS011;59593;51.716;7.016;2023-12-28T11:43:53;10.02;;;2.70;;
71753;SDS011;59593;51.716;7.016;2023-12-28T11:46:20;14.40;;;2.83;;
71753;SDS011;59593;51.716;7.016;2023-12-28T11:48:46;13.30;;;2.88;;
71753;SDS011;59593;51.716;7.016;2023-12-28T11:51:12;16.75;;;2.92;;
71753;SDS011;59593;51.716;7.016;2023-12-28T11:53:38;15.13;;;2.75;;
71753;SDS011;59593;51.716;7.016;2023-12-28T11:56:04;11.40;;;2.65;;
71753;SDS011;59593;51.716;7.016;2023-12-28T11:58:34;7.75;;;2.10;;
71753;SDS011;59593;51.716;7.016;2023-12-28T12:01:00;13.25;;;2.63;;
71753;SDS011;59593;51.716;7.016;2023-12-28T12:03:27;9.87;;;2.30;;
71753;SDS011;59593;51.716;7.016;2023-12-28T12:05:55;9.38;;;2.30;;
71753;SDS011;59593;51.716;7.016;2023-12-28T12:08:22;11.80;;;3.10;;
71753;SDS011;59593;51.716;7.016;2023-12-28T12:10:47;8.90;;;2.70;;
71753;SDS011;59593;51.716;7.016;2023-12-28T12:13:13;13.68;;;2.85;;
71753;SDS011;59593;51.716;7.016;2023-12-28T12:15:39;9.93;;;2.47;;
71753;SDS011;59593;51.716;7.016;2023-12-28T12:18:05;11.80;;;2.78;;
71753;SDS011;59593;51.716;7.016;2023-12-28T12:20:31;13.45;;;3.60;;
71753;SDS011;59593;51.716;7.016;2023-12-28T12:22:57;10.93;;;2.75;;
71753;SDS011;59593;51.716;7.016;2023-12-28T12:25:25;9.77;;;2.60;;
71753;SDS011;59593;51.716;7.016;2023-12-28T12:27:51;9.45;;;2.97;;
71753;SDS011;59593;51.716;7.016;2023-12-28T12:30:18;12.10;;;3.10;;
71753;SDS011;59593;51.716;7.016;2023-12-28T12:32:44;10.27;;;2.50;;
71753;SDS011;59593;51.716;7.016;2023-12-28T12:35:10;7.63;;;2.88;;
71753;SDS011;59593;51.716;7.016;2023-12-28T12:37:37;12.15;;;2.85;;
71753;SDS011;59593;51.716;7.016;2023-12-28T12:40:03;14.05;;;2.92;;
71753;SDS011;59593;51.716;7.016;2023-12-28T12:42:31;9.15;;;2.20;;
71753;SDS011;59593;51.716;7.016;2023-12-28T12:44:59;10.23;;;2.42;;
71753;SDS011;59593;51.716;7.016;2023-12-28T12:47:25;9.23;;;2.80;;
71753;SDS011;59593;51.716;7.016;2023-12-28T12:49:57;10.13;;;2.57;;
71753;SDS011;59593;51.716;7.016;2023-12-28T12:52:23;9.80;;;2.40;;
71753;SDS011;59593;51.716;7.016;2023-12-28T12:54:54;10.90;;;2.50;;
71753;SDS011;59593;51.716;7.016;2023-12-28T12:57:20;11.32;;;2.63;;
71753;SDS011;59593;51.716;7.016;2023-12-28T12:59:46;12.45;;;3.35;;
71753;SDS011;59593;51.716;7.016;2023-12-28T13:02:12;12.30;;;3.27;;
71753;SDS011;59593;51.716;7.016;2023-12-28T13:04:38;13.27;;;2.53;;
71753;SDS011;59593;51.716;7.016;2023-12-28T13:07:04;11.40;;;2.60;;
71753;SDS011;59593;51.716;7.016;2023-12-28T13:09:29;13.80;;;3.13;;
71753;SDS011;59593;51.716;7.016;2023-12-28T13:11:55;11.50;;;2.53;;
71753;SDS011;59593;51.716;7.016;2023-12-28T13:14:21;11.23;;;2.50;;
71753;SDS011;59593;51.716;7.016;2023-12-28T13:16:47;11.52;;;2.72;;
71753;SDS011;59593;51.716;7.016;2023-12-28T13:19:17;11.02;;;2.63;;
71753;SDS011;59593;51.716;7.016;2023-12-28T13:21:42;9.32;;;2.30;;
71753;SDS011;59593;51.716;7.016;2023-12-28T13:24:09;13.53;;;2.83;;
71753;SDS011;59593;51.716;7.016;2023-12-28T13:26:34;9.63;;;2.70;;
71753;SDS011;59593;51.716;7.016;2023-12-28T13:29:00;11.50;;;2.50;;
71753;SDS011;59593;51.716;7.016;2023-12-28T13:31:25;12.52;;;2.45;;
71753;SDS011;59593;51.716;7.016;2023-12-28T13:33:51;14.10;;;2.70;;
71753;SDS011;59593;51.716;7.016;2023-12-28T13:36:17;17.67;;;3.25;;
71753;SDS011;59593;51.716;7.016;2023-12-28T13:38:43;14.13;;;2.70;;
71753;SDS011;59593;51.716;7.016;2023-12-28T13:41:09;11.23;;;2.30;;
71753;SDS011;59593;51.716;7.016;2023-12-28T13:43:35;13.02;;;2.55;;
71753;SDS011;59593;51.716;7.016;2023-12-28T13:46:00;14.27;;;2.33;;
71753;SDS011;59593;51.716;7.016;2023-12-28T13:48:28;11.57;;;2.53;;
71753;SDS011;59593;51.716;7.016;2023-12-28T13:50:55;13.15;;;3.00;;
71753;SDS011;59593;51.716;7.016;2023-12-28T13:53:20;14.85;;;2.97;;
71753;SDS011;59593;51.716;7.016;2023-12-28T13:55:46;11.77;;;2.60;;
71753;SDS011;59593;51.716;7.016;2023-12-28T13:58:12;11.95;;;2.70;;
71753;SDS011;59593;51.716;7.016;2023-12-28T14:00:37;11.48;;;2.90;;
71753;SDS011;59593;51.716;7.016;2023-12-28T14:03:04;9.82;;;2.35;;
71753;SDS011;59593;51.716;7.016;2023-12-28T14:05:29;8.93;;;2.70;;
71753;SDS011;59593;51.716;7.016;2023-12-28T14:07:56;15.32;;;3.13;;
71753;SDS011;59593;51.716;7.016;2023-12-28T14:10:22;11.02;;;2.63;;
71753;SDS011;59593;51.716;7.016;2023-12-28T14:12:48;9.60;;;2.60;;
71753;SDS011;59593;51.716;7.016;2023-12-28T14:15:13;14.90;;;3.17;;
71753;SDS011;59593;51.716;7.016;2023-12-28T14:17:41;8.20;;;2.80;;
71753;SDS011;59593;51.716;7.016;2023-12-28T14:20:07;16.80;;;3.40;;
71753;SDS011;59593;51.716;7.016;2023-12-28T14:22:36;10.20;;;2.55;;
71753;SDS011;59593;51.716;7.016;2023-12-28T14:25:03;11.82;;;3.45;;
71753;SDS011;59593;51.716;7.016;2023-12-28T14:27:29;18.03;;;2.93;;
71753;SDS011;59593;51.716;7.016;2023-12-28T14:29:55;12.60;;;2.93;;
71753;SDS011;59593;51.716;7.016;2023-12-28T14:32:21;12.52;;;2.95;;
71753;SDS011;59593;51.716;7.016;2023-12-28T14:34:47;12.27;;;3.10;;
71753;SDS011;59593;51.716;7.016;2023-12-28T14:37:13;13.20;;;3.83;;
71753;SDS011;59593;51.716;7.016;2023-12-28T14:39:39;11.60;;;2.93;;
71753;SDS011;59593;51.716;7.016;2023-12-28T14:42:04;10.90;;;3.20;;
71753;SDS011;59593;51.716;7.016;2023-12-28T14:44:30;12.48;;;3.80;;
71753;SDS011;59593;51.716;7.016;2023-12-28T14:46:56;12.10;;;3.08;;
71753;SDS011;59593;51.716;7.016;2023-12-28T14:49:22;14.35;;;3.40;;
71753;SDS011;59593;51.716;7.016;2023-12-28T14:51:47;13.18;;;3.20;;